sensor_id;sensor_type;location;lat;lon;timestamp;pressure;altitude;pressure_sealevel;temperature
79089;BMP280;68489;50.286;9.452;2024-03-22T00:02:15;97877.59;;;6.10
79089;BMP280;68489;50.286;9.452;2024-03-22T00:04:40;97874.56;;;6.08
79089;BMP280;68489;50.286;9.452;2024-03-22T00:07:05;97874.63;;;6.04
79089;BMP280;68489;50.286;9.452;2024-03-22T00:09:31;97863.31;;;6.00
79089;BMP280;68489;50.286;9.452;2024-03-22T00:11:56;97861.84;;;5.95
79089;BMP280;68489;50.286;9.452;2024-03-22T00:14:21;97867.50;;;5.94
79089;BMP280;68489;50.286;9.452;2024-03-22T00:16:47;97868.31;;;5.91
79089;BMP280;68489;50.286;9.452;2024-03-22T00:19:12;97861.16;;;5.88
79089;BMP280;68489;50.286;9.452;2024-03-22T00:21:37;97866.44;;;5.84
79089;BMP280;68489;50.286;9.452;2024-03-22T00:24:03;97864.19;;;5.83
79089;BMP280;68489;50.286;9.452;2024-03-22T00:26:28;97861.56;;;5.79
79089;BMP280;68489;50.286;9.452;2024-03-22T00:28:54;97851.03;;;5.75
79089;BMP280;68489;50.286;9.452;2024-03-22T00:31:19;97854.44;;;5.72
79089;BMP280;68489;50.286;9.452;2024-03-22T00:33:44;97859.00;;;5.68
79089;BMP280;68489;50.286;9.452;2024-03-22T00:36:10;97865.81;;;5.62
79089;BMP280;68489;50.286;9.452;2024-03-22T00:38:35;97862.06;;;5.60
79089;BMP280;68489;50.286;9.452;2024-03-22T00:41:01;97869.59;;;5.58
79089;BMP280;68489;50.286;9.452;2024-03-22T00:43:26;97863.19;;;5.55
79089;BMP280;68489;50.286;9.452;2024-03-22T00:45:51;97864.72;;;5.52
79089;BMP280;68489;50.286;9.452;2024-03-22T00:48:17;97856.44;;;5.50
79089;BMP280;68489;50.286;9.452;2024-03-22T00:50:43;97848.16;;;5.48
79089;BMP280;68489;50.286;9.452;2024-03-22T00:53:08;97847.75;;;5.50
79089;BMP280;68489;50.286;9.452;2024-03-22T00:55:35;97843.63;;;5.49
79089;BMP280;68489;50.286;9.452;2024-03-22T00:58:00;97843.25;;;5.47
79089;BMP280;68489;50.286;9.452;2024-03-22T01:00:26;97826.72;;;5.43
79089;BMP280;68489;50.286;9.452;2024-03-22T01:02:51;97825.94;;;5.42
79089;BMP280;68489;50.286;9.452;2024-03-22T01:05:17;97827.88;;;5.38
79089;BMP280;68489;50.286;9.452;2024-03-22T01:07:42;97824.09;;;5.36
79089;BMP280;68489;50.286;9.452;2024-03-22T01:10:08;97830.13;;;5.33
79089;BMP280;68489;50.286;9.452;2024-03-22T01:12:33;97823.72;;;5.34
79089;BMP280;68489;50.286;9.452;2024-03-22T01:14:59;97814.69;;;5.35
79089;BMP280;68489;50.286;9.452;2024-03-22T01:17:24;97810.94;;;5.32
79089;BMP280;68489;50.286;9.452;2024-03-22T01:19:50;97809.78;;;5.33
79089;BMP280;68489;50.286;9.452;2024-03-22T01:22:16;97801.50;;;5.31
79089;BMP280;68489;50.286;9.452;2024-03-22T01:24:42;97802.28;;;5.28
79089;BMP280;68489;50.286;9.452;2024-03-22T01:27:08;97802.69;;;5.26
79089;BMP280;68489;50.286;9.452;2024-03-22T01:29:33;97799.69;;;5.24
79089;BMP280;68489;50.286;9.452;2024-03-22T01:31:58;97786.13;;;5.22
79089;BMP280;68489;50.286;9.452;2024-03-22T01:34:24;97783.09;;;5.20
79089;BMP280;68489;50.286;9.452;2024-03-22T01:36:50;97785.00;;;5.20
79089;BMP280;68489;50.286;9.452;2024-03-22T01:39:16;97783.88;;;5.17
79089;BMP280;68489;50.286;9.452;2024-03-22T01:41:43;97782.75;;;5.15
79089;BMP280;68489;50.286;9.452;2024-03-22T01:44:08;97777.84;;;5.13
79089;BMP280;68489;50.286;9.452;2024-03-22T01:46:34;97767.72;;;5.12
79089;BMP280;68489;50.286;9.452;2024-03-22T01:48:59;97771.88;;;5.13
79089;BMP280;68489;50.286;9.452;2024-03-22T01:51:25;97769.94;;;5.17
79089;BMP280;68489;50.286;9.452;2024-03-22T01:53:52;97770.69;;;5.21
79089;BMP280;68489;50.286;9.452;2024-03-22T01:56:18;97779.34;;;5.21
79089;BMP280;68489;50.286;9.452;2024-03-22T01:58:44;97782.72;;;5.25
79089;BMP280;68489;50.286;9.452;2024-03-22T02:01:10;97778.56;;;5.28
79089;BMP280;68489;50.286;9.452;2024-03-22T02:03:35;97774.31;;;5.48
79089;BMP280;68489;50.286;9.452;2024-03-22T02:06:01;97767.88;;;5.49
79089;BMP280;68489;50.286;9.452;2024-03-22T02:08:26;97756.19;;;5.50
79089;BMP280;68489;50.286;9.452;2024-03-22T02:10:51;97753.22;;;5.45
79089;BMP280;68489;50.286;9.452;2024-03-22T02:13:17;97757.00;;;5.44
79089;BMP280;68489;50.286;9.452;2024-03-22T02:15:43;97749.47;;;5.42
79089;BMP280;68489;50.286;9.452;2024-03-22T02:18:08;97751.38;;;5.38
79089;BMP280;68489;50.286;9.452;2024-03-22T02:20:34;97745.00;;;5.32
79089;BMP280;68489;50.286;9.452;2024-03-22T02:23:00;97746.19;;;5.24
79089;BMP280;68489;50.286;9.452;2024-03-22T02:25:25;97753.75;;;5.18
79089;BMP280;68489;50.286;9.452;2024-03-22T02:27:50;97753.41;;;5.09
79089;BMP280;68489;50.286;9.452;2024-03-22T02:30:17;97742.50;;;5.03
79089;BMP280;68489;50.286;9.452;2024-03-22T02:32:42;97740.25;;;4.98
79089;BMP280;68489;50.286;9.452;2024-03-22T02:35:08;97741.06;;;4.95
79089;BMP280;68489;50.286;9.452;2024-03-22T02:37:33;97732.78;;;4.90
79089;BMP280;68489;50.286;9.452;2024-03-22T02:39:59;97733.16;;;4.85
79089;BMP280;68489;50.286;9.452;2024-03-22T02:42:24;97733.94;;;4.78
79089;BMP280;68489;50.286;9.452;2024-03-22T02:44:49;97730.22;;;4.72
79089;BMP280;68489;50.286;9.452;2024-03-22T02:47:15;97725.69;;;4.65
79089;BMP280;68489;50.286;9.452;2024-03-22T02:49:40;97731.72;;;4.62
79089;BMP280;68489;50.286;9.452;2024-03-22T02:52:06;97718.22;;;4.60
79089;BMP280;68489;50.286;9.452;2024-03-22T02:54:31;97724.63;;;4.59
79089;BMP280;68489;50.286;9.452;2024-03-22T02:56:57;97731.03;;;4.58
79089;BMP280;68489;50.286;9.452;2024-03-22T02:59:25;97726.13;;;4.56
79089;BMP280;68489;50.286;9.452;2024-03-22T03:01:51;97728.00;;;4.56
79089;BMP280;68489;50.286;9.452;2024-03-22T03:04:16;97717.44;;;4.59
79089;BMP280;68489;50.286;9.452;2024-03-22T03:06:41;97717.09;;;4.57
79089;BMP280;68489;50.286;9.452;2024-03-22T03:09:07;97719.00;;;4.57
79089;BMP280;68489;50.286;9.452;2024-03-22T03:11:37;97712.94;;;4.60
79089;BMP280;68489;50.286;9.452;2024-03-22T03:14:02;97704.66;;;4.62
79089;BMP280;68489;50.286;9.452;2024-03-22T03:16:27;97718.94;;;4.64
79089;BMP280;68489;50.286;9.452;2024-03-22T03:18:53;97715.56;;;4.60
79089;BMP280;68489;50.286;9.452;2024-03-22T03:21:18;97703.91;;;4.61
79089;BMP280;68489;50.286;9.452;2024-03-22T03:23:43;97711.44;;;4.63
79089;BMP280;68489;50.286;9.452;2024-03-22T03:26:09;97718.56;;;4.66
79089;BMP280;68489;50.286;9.452;2024-03-22T03:28:34;97717.44;;;4.67
79089;BMP280;68489;50.286;9.452;2024-03-22T03:30:59;97715.94;;;4.66
79089;BMP280;68489;50.286;9.452;2024-03-22T03:33:24;97717.44;;;4.63
79089;BMP280;68489;50.286;9.452;2024-03-22T03:35:50;97709.22;;;4.57
79089;BMP280;68489;50.286;9.452;2024-03-22T03:38:15;97702.06;;;4.54
79089;BMP280;68489;50.286;9.452;2024-03-22T03:40:40;97696.78;;;4.51
79089;BMP280;68489;50.286;9.452;2024-03-22T03:43:06;97688.13;;;4.50
79089;BMP280;68489;50.286;9.452;2024-03-22T03:45:31;97693.03;;;4.52
79089;BMP280;68489;50.286;9.452;2024-03-22T03:47:56;97692.25;;;4.51
79089;BMP280;68489;50.286;9.452;2024-03-22T03:50:22;97688.13;;;4.50
79089;BMP280;68489;50.286;9.452;2024-03-22T03:52:47;97694.53;;;4.49
79089;BMP280;68489;50.286;9.452;2024-03-22T03:55:12;97693.03;;;4.48
79089;BMP280;68489;50.286;9.452;2024-03-22T03:57:38;97695.31;;;4.46
79089;BMP280;68489;50.286;9.452;2024-03-22T04:00:03;97680.25;;;4.47
79089;BMP280;68489;50.286;9.452;2024-03-22T04:02:30;97679.50;;;4.46
79089;BMP280;68489;50.286;9.452;2024-03-22T04:04:55;97677.97;;;4.45
79089;BMP280;68489;50.286;9.452;2024-03-22T04:07:20;97676.09;;;4.46
79089;BMP280;68489;50.286;9.452;2024-03-22T04:09:46;97671.22;;;4.48
79089;BMP280;68489;50.286;9.452;2024-03-22T04:12:12;97664.44;;;4.50
79089;BMP280;68489;50.286;9.452;2024-03-22T04:14:37;97662.19;;;4.52
79089;BMP280;68489;50.286;9.452;2024-03-22T04:17:02;97665.94;;;4.51
79089;BMP280;68489;50.286;9.452;2024-03-22T04:19:28;97664.06;;;4.52
79089;BMP280;68489;50.286;9.452;2024-03-22T04:21:53;97662.94;;;4.49
79089;BMP280;68489;50.286;9.452;2024-03-22T04:24:18;97658.44;;;4.50
79089;BMP280;68489;50.286;9.452;2024-03-22T04:26:44;97664.06;;;4.52
79089;BMP280;68489;50.286;9.452;2024-03-22T04:29:09;97666.69;;;4.55
79089;BMP280;68489;50.286;9.452;2024-03-22T04:31:35;97675.28;;;4.59
79089;BMP280;68489;50.286;9.452;2024-03-22T04:34:00;97668.56;;;4.58
79089;BMP280;68489;50.286;9.452;2024-03-22T04:36:26;97660.66;;;4.58
79089;BMP280;68489;50.286;9.452;2024-03-22T04:38:51;97656.53;;;4.57
79089;BMP280;68489;50.286;9.452;2024-03-22T04:41:16;97664.75;;;4.59
79089;BMP280;68489;50.286;9.452;2024-03-22T04:43:42;97666.69;;;4.59
79089;BMP280;68489;50.286;9.452;2024-03-22T04:46:08;97659.13;;;4.68
79089;BMP280;68489;50.286;9.452;2024-03-22T04:48:33;97669.25;;;4.70
79089;BMP280;68489;50.286;9.452;2024-03-22T04:50:59;97664.69;;;4.81
79089;BMP280;68489;50.286;9.452;2024-03-22T04:53:24;97667.66;;;4.87
79089;BMP280;68489;50.286;9.452;2024-03-22T04:55:50;97674.81;;;4.93
79089;BMP280;68489;50.286;9.452;2024-03-22T04:58:19;97668.34;;;5.05
79089;BMP280;68489;50.286;9.452;2024-03-22T05:00:46;97672.78;;;5.19
79089;BMP280;68489;50.286;9.452;2024-03-22T05:03:12;97667.88;;;5.21
79089;BMP280;68489;50.286;9.452;2024-03-22T05:05:38;97663.31;;;5.25
79089;BMP280;68489;50.286;9.452;2024-03-22T05:08:04;97662.97;;;5.26
79089;BMP280;68489;50.286;9.452;2024-03-22T05:10:30;97655.72;;;5.31
79089;BMP280;68489;50.286;9.452;2024-03-22T05:12:58;97656.09;;;5.33
79089;BMP280;68489;50.286;9.452;2024-03-22T05:15:24;97650.06;;;5.36
79089;BMP280;68489;50.286;9.452;2024-03-22T05:17:53;97646.66;;;5.39
79089;BMP280;68489;50.286;9.452;2024-03-22T05:20:19;97633.84;;;5.41
79089;BMP280;68489;50.286;9.452;2024-03-22T05:22:46;97633.81;;;5.44
79089;BMP280;68489;50.286;9.452;2024-03-22T05:25:11;97624.72;;;5.49
79089;BMP280;68489;50.286;9.452;2024-03-22T05:27:38;97629.94;;;5.56
79089;BMP280;68489;50.286;9.452;2024-03-22T05:30:03;97624.59;;;5.63
79089;BMP280;68489;50.286;9.452;2024-03-22T05:32:32;97629.06;;;5.73
79089;BMP280;68489;50.286;9.452;2024-03-22T05:34:57;97632.66;;;5.87
79089;BMP280;68489;50.286;9.452;2024-03-22T05:37:23;97642.63;;;6.10
79089;BMP280;68489;50.286;9.452;2024-03-22T05:39:48;97644.47;;;6.13
79089;BMP280;68489;50.286;9.452;2024-03-22T05:42:14;97644.44;;;6.16
79089;BMP280;68489;50.286;9.452;2024-03-22T05:44:39;97632.03;;;6.13
79089;BMP280;68489;50.286;9.452;2024-03-22T05:47:04;97637.38;;;6.06
79089;BMP280;68489;50.286;9.452;2024-03-22T05:49:30;97628.34;;;6.04
79089;BMP280;68489;50.286;9.452;2024-03-22T05:51:55;97633.63;;;6.04
79089;BMP280;68489;50.286;9.452;2024-03-22T05:54:21;97629.13;;;6.00
79089;BMP280;68489;50.286;9.452;2024-03-22T05:56:46;97630.25;;;6.03
79089;BMP280;68489;50.286;9.452;2024-03-22T05:59:11;97631.69;;;6.08
79089;BMP280;68489;50.286;9.452;2024-03-22T06:01:37;97632.03;;;6.13
79089;BMP280;68489;50.286;9.452;2024-03-22T06:04:06;97635.00;;;6.19
79089;BMP280;68489;50.286;9.452;2024-03-22T06:06:33;97624.34;;;6.26
79089;BMP280;68489;50.286;9.452;2024-03-22T06:08:59;97625.78;;;6.31
79089;BMP280;68489;50.286;9.452;2024-03-22T06:11:25;97623.53;;;6.33
79089;BMP280;68489;50.286;9.452;2024-03-22T06:13:51;97611.34;;;6.39
79089;BMP280;68489;50.286;9.452;2024-03-22T06:16:16;97608.56;;;6.50
79089;BMP280;68489;50.286;9.452;2024-03-22T06:18:41;97610.38;;;6.56
79089;BMP280;68489;50.286;9.452;2024-03-22T06:21:07;97600.06;;;6.65
79089;BMP280;68489;50.286;9.452;2024-03-22T06:23:32;97598.50;;;6.71
79089;BMP280;68489;50.286;9.452;2024-03-22T06:25:58;97605.22;;;6.76
79089;BMP280;68489;50.286;9.452;2024-03-22T06:28:27;97601.69;;;6.86
79089;BMP280;68489;50.286;9.452;2024-03-22T06:30:52;97603.94;;;6.88
79089;BMP280;68489;50.286;9.452;2024-03-22T06:33:17;97595.47;;;6.97
79089;BMP280;68489;50.286;9.452;2024-03-22T06:35:45;97600.72;;;7.00
79089;BMP280;68489;50.286;9.452;2024-03-22T06:38:11;97602.84;;;7.09
79089;BMP280;68489;50.286;9.452;2024-03-22T06:40:36;97610.22;;;7.21
79089;BMP280;68489;50.286;9.452;2024-03-22T06:43:02;97607.47;;;7.28
79089;BMP280;68489;50.286;9.452;2024-03-22T06:45:27;97610.75;;;7.36
79089;BMP280;68489;50.286;9.452;2024-03-22T06:47:53;97610.75;;;7.36
79089;BMP280;68489;50.286;9.452;2024-03-22T06:50:18;97605.03;;;7.37
79089;BMP280;68489;50.286;9.452;2024-03-22T06:52:44;97594.75;;;7.43
79089;BMP280;68489;50.286;9.452;2024-03-22T06:55:09;97599.63;;;7.44
79089;BMP280;68489;50.286;9.452;2024-03-22T06:57:37;97598.88;;;7.44
79089;BMP280;68489;50.286;9.452;2024-03-22T07:00:02;97590.50;;;7.49
79089;BMP280;68489;50.286;9.452;2024-03-22T07:02:28;97585.06;;;7.56
79089;BMP280;68489;50.286;9.452;2024-03-22T07:04:53;97597.34;;;7.66
79089;BMP280;68489;50.286;9.452;2024-03-22T07:07:19;97592.41;;;7.88
79089;BMP280;68489;50.286;9.452;2024-03-22T07:09:44;97595.47;;;8.07
79089;BMP280;68489;50.286;9.452;2024-03-22T07:12:10;97590.38;;;8.16
79089;BMP280;68489;50.286;9.452;2024-03-22T07:14:36;97581.31;;;8.33
79089;BMP280;68489;50.286;9.452;2024-03-22T07:17:01;97592.72;;;8.67
79089;BMP280;68489;50.286;9.452;2024-03-22T07:19:26;97592.38;;;8.81
79089;BMP280;68489;50.286;9.452;2024-03-22T07:21:53;97595.06;;;8.97
79089;BMP280;68489;50.286;9.452;2024-03-22T07:24:19;97599.50;;;9.17
79089;BMP280;68489;50.286;9.452;2024-03-22T07:26:44;97593.63;;;9.25
79089;BMP280;68489;50.286;9.452;2024-03-22T07:29:10;97594.19;;;9.33
79089;BMP280;68489;50.286;9.452;2024-03-22T07:31:35;97585.28;;;9.39
79089;BMP280;68489;50.286;9.452;2024-03-22T07:34:00;97577.38;;;9.52
79089;BMP280;68489;50.286;9.452;2024-03-22T07:36:26;97574.72;;;9.52
79089;BMP280;68489;50.286;9.452;2024-03-22T07:38:52;97571.00;;;9.50
79089;BMP280;68489;50.286;9.452;2024-03-22T07:41:17;97567.50;;;9.66
79089;BMP280;68489;50.286;9.452;2024-03-22T07:43:42;97566.66;;;9.98
79089;BMP280;68489;50.286;9.452;2024-03-22T07:46:09;97577.28;;;10.36
79089;BMP280;68489;50.286;9.452;2024-03-22T07:48:34;97579.19;;;10.61
79089;BMP280;68489;50.286;9.452;2024-03-22T07:51:00;97588.09;;;10.67
79089;BMP280;68489;50.286;9.452;2024-03-22T07:53:26;97587.91;;;10.49
79089;BMP280;68489;50.286;9.452;2024-03-22T07:55:52;97580.59;;;10.40
79089;BMP280;68489;50.286;9.452;2024-03-22T07:58:17;97582.72;;;10.45
79089;BMP280;68489;50.286;9.452;2024-03-22T08:00:42;97563.88;;;10.27
79089;BMP280;68489;50.286;9.452;2024-03-22T08:03:08;97564.53;;;10.31
79089;BMP280;68489;50.286;9.452;2024-03-22T08:05:39;97560.16;;;10.37
79089;BMP280;68489;50.286;9.452;2024-03-22T08:08:04;97569.19;;;10.65
79089;BMP280;68489;50.286;9.452;2024-03-22T08:10:29;97568.19;;;10.84
79089;BMP280;68489;50.286;9.452;2024-03-22T08:12:55;97560.00;;;10.79
79089;BMP280;68489;50.286;9.452;2024-03-22T08:15:21;97565.59;;;11.06
79089;BMP280;68489;50.286;9.452;2024-03-22T08:17:46;97561.19;;;11.12
79089;BMP280;68489;50.286;9.452;2024-03-22T08:20:11;97560.81;;;11.23
79089;BMP280;68489;50.286;9.452;2024-03-22T08:22:37;97567.28;;;11.35
79089;BMP280;68489;50.286;9.452;2024-03-22T08:25:02;97555.31;;;11.39
79089;BMP280;68489;50.286;9.452;2024-03-22T08:27:29;97557.13;;;11.43
79089;BMP280;68489;50.286;9.452;2024-03-22T08:29:54;97547.53;;;11.45
79089;BMP280;68489;50.286;9.452;2024-03-22T08:32:20;97546.72;;;11.57
79089;BMP280;68489;50.286;9.452;2024-03-22T08:34:45;97539.59;;;11.54
79089;BMP280;68489;50.286;9.452;2024-03-22T08:37:11;97542.25;;;11.54
79089;BMP280;68489;50.286;9.452;2024-03-22T08:39:36;97544.88;;;11.45
79089;BMP280;68489;50.286;9.452;2024-03-22T08:42:02;97544.50;;;11.34
79089;BMP280;68489;50.286;9.452;2024-03-22T08:44:30;97537.19;;;11.25
79089;BMP280;68489;50.286;9.452;2024-03-22T08:46:55;97532.53;;;11.17
79089;BMP280;68489;50.286;9.452;2024-03-22T08:49:21;97519.88;;;10.99
79089;BMP280;68489;50.286;9.452;2024-03-22T08:51:46;97517.13;;;10.90
79089;BMP280;68489;50.286;9.452;2024-03-22T08:54:13;97518.63;;;10.91
79089;BMP280;68489;50.286;9.452;2024-03-22T08:56:38;97512.53;;;10.90
79089;BMP280;68489;50.286;9.452;2024-03-22T08:59:04;97520.28;;;10.97
79089;BMP280;68489;50.286;9.452;2024-03-22T09:01:29;97510.91;;;10.93
79089;BMP280;68489;50.286;9.452;2024-03-22T09:03:54;97512.84;;;10.92
79089;BMP280;68489;50.286;9.452;2024-03-22T09:06:20;97509.25;;;10.86
79089;BMP280;68489;50.286;9.452;2024-03-22T09:08:45;97500.00;;;10.91
79089;BMP280;68489;50.286;9.452;2024-03-22T09:11:11;97500.75;;;10.91
79089;BMP280;68489;50.286;9.452;2024-03-22T09:13:36;97500.59;;;10.95
79089;BMP280;68489;50.286;9.452;2024-03-22T09:16:02;97500.03;;;11.00
79089;BMP280;68489;50.286;9.452;2024-03-22T09:18:28;97489.59;;;11.05
79089;BMP280;68489;50.286;9.452;2024-03-22T09:20:53;97492.81;;;11.22
79089;BMP280;68489;50.286;9.452;2024-03-22T09:23:19;97491.63;;;11.45
79089;BMP280;68489;50.286;9.452;2024-03-22T09:25:45;97480.22;;;11.76
79089;BMP280;68489;50.286;9.452;2024-03-22T09:28:11;97485.19;;;11.96
79089;BMP280;68489;50.286;9.452;2024-03-22T09:30:40;97484.22;;;12.21
79089;BMP280;68489;50.286;9.452;2024-03-22T09:33:06;97476.97;;;12.30
79089;BMP280;68489;50.286;9.452;2024-03-22T09:35:33;97475.06;;;12.49
79089;BMP280;68489;50.286;9.452;2024-03-22T09:37:59;97467.97;;;12.37
79089;BMP280;68489;50.286;9.452;2024-03-22T09:40:24;97469.59;;;12.44
79089;BMP280;68489;50.286;9.452;2024-03-22T09:42:52;97464.84;;;12.48
79089;BMP280;68489;50.286;9.452;2024-03-22T09:45:19;97464.72;;;12.51
79089;BMP280;68489;50.286;9.452;2024-03-22T09:47:46;97459.94;;;12.64
79089;BMP280;68489;50.286;9.452;2024-03-22T09:50:13;97465.59;;;12.67
79089;BMP280;68489;50.286;9.452;2024-03-22T09:52:41;97469.13;;;12.63
79089;BMP280;68489;50.286;9.452;2024-03-22T09:55:07;97462.19;;;12.57
79089;BMP280;68489;50.286;9.452;2024-03-22T09:57:37;97454.03;;;12.51
79089;BMP280;68489;50.286;9.452;2024-03-22T10:00:06;97458.50;;;12.54
79089;BMP280;68489;50.286;9.452;2024-03-22T10:02:33;97451.97;;;12.74
79089;BMP280;68489;50.286;9.452;2024-03-22T10:04:58;97451.66;;;12.90
79089;BMP280;68489;50.286;9.452;2024-03-22T10:07:25;97461.69;;;13.13
79089;BMP280;68489;50.286;9.452;2024-03-22T10:09:51;97455.84;;;13.33
79089;BMP280;68489;50.286;9.452;2024-03-22T10:12:17;97454.59;;;13.53
79089;BMP280;68489;50.286;9.452;2024-03-22T10:14:45;97453.78;;;13.71
79089;BMP280;68489;50.286;9.452;2024-03-22T10:17:11;97446.91;;;13.79
79089;BMP280;68489;50.286;9.452;2024-03-22T10:19:36;97446.28;;;14.08
79089;BMP280;68489;50.286;9.452;2024-03-22T10:22:05;97434.09;;;14.07
79089;BMP280;68489;50.286;9.452;2024-03-22T10:24:30;97432.69;;;14.20
79089;BMP280;68489;50.286;9.452;2024-03-22T10:26:57;97428.47;;;14.43
79089;BMP280;68489;50.286;9.452;2024-03-22T10:29:23;97426.88;;;14.76
79089;BMP280;68489;50.286;9.452;2024-03-22T10:31:51;97415.63;;;14.86
79089;BMP280;68489;50.286;9.452;2024-03-22T10:34:17;97416.34;;;14.87
79089;BMP280;68489;50.286;9.452;2024-03-22T10:36:43;97403.13;;;15.13
79089;BMP280;68489;50.286;9.452;2024-03-22T10:39:10;97399.28;;;15.34
79089;BMP280;68489;50.286;9.452;2024-03-22T10:41:37;97393.03;;;15.58
79089;BMP280;68489;50.286;9.452;2024-03-22T10:44:03;97396.38;;;15.93
79089;BMP280;68489;50.286;9.452;2024-03-22T10:46:30;97388.03;;;16.12
79089;BMP280;68489;50.286;9.452;2024-03-22T10:48:56;97388.66;;;16.21
79089;BMP280;68489;50.286;9.452;2024-03-22T10:51:24;97379.78;;;16.36
79089;BMP280;68489;50.286;9.452;2024-03-22T10:53:51;97378.84;;;16.76
79089;BMP280;68489;50.286;9.452;2024-03-22T10:56:18;97375.94;;;16.48
79089;BMP280;68489;50.286;9.452;2024-03-22T10:58:43;97385.88;;;16.99
79089;BMP280;68489;50.286;9.452;2024-03-22T11:01:23;97378.63;;;17.11
79089;BMP280;68489;50.286;9.452;2024-03-22T11:03:48;97367.47;;;17.24
79089;BMP280;68489;50.286;9.452;2024-03-22T11:06:18;97364.00;;;17.12
79089;BMP280;68489;50.286;9.452;2024-03-22T11:08:43;97365.06;;;17.31
79089;BMP280;68489;50.286;9.452;2024-03-22T11:11:10;97356.75;;;16.92
79089;BMP280;68489;50.286;9.452;2024-03-22T11:13:41;97359.59;;;16.77
79089;BMP280;68489;50.286;9.452;2024-03-22T11:16:09;97359.25;;;16.96
79089;BMP280;68489;50.286;9.452;2024-03-22T11:18:35;97354.41;;;16.68
79089;BMP280;68489;50.286;9.452;2024-03-22T11:21:00;97355.34;;;16.97
79089;BMP280;68489;50.286;9.452;2024-03-22T11:23:25;97348.94;;;16.94
79089;BMP280;68489;50.286;9.452;2024-03-22T11:25:51;97346.75;;;17.35
79089;BMP280;68489;50.286;9.452;2024-03-22T11:28:16;97335.56;;;17.00
79089;BMP280;68489;50.286;9.452;2024-03-22T11:30:42;97337.25;;;17.34
79089;BMP280;68489;50.286;9.452;2024-03-22T11:33:08;97327.75;;;17.56
79089;BMP280;68489;50.286;9.452;2024-03-22T11:35:33;97322.88;;;17.54
79089;BMP280;68489;50.286;9.452;2024-03-22T11:37:58;97318.28;;;17.77
79089;BMP280;68489;50.286;9.452;2024-03-22T11:40:26;97318.81;;;18.04
79089;BMP280;68489;50.286;9.452;2024-03-22T11:42:52;97322.69;;;17.86
79089;BMP280;68489;50.286;9.452;2024-03-22T11:45:20;97316.78;;;17.65
79089;BMP280;68489;50.286;9.452;2024-03-22T11:47:47;97311.09;;;17.41
79089;BMP280;68489;50.286;9.452;2024-03-22T11:50:13;97304.28;;;17.45
79089;BMP280;68489;50.286;9.452;2024-03-22T11:52:40;97312.94;;;17.12
79089;BMP280;68489;50.286;9.452;2024-03-22T11:55:06;97301.59;;;17.51
79089;BMP280;68489;50.286;9.452;2024-03-22T11:57:31;97298.94;;;17.56
79089;BMP280;68489;50.286;9.452;2024-03-22T12:00:00;97302.16;;;17.83
79089;BMP280;68489;50.286;9.452;2024-03-22T12:02:26;97300.47;;;18.19
79089;BMP280;68489;50.286;9.452;2024-03-22T12:04:51;97291.22;;;18.03
79089;BMP280;68489;50.286;9.452;2024-03-22T12:07:17;97287.50;;;17.78
79089;BMP280;68489;50.286;9.452;2024-03-22T12:09:43;97280.84;;;17.57
79089;BMP280;68489;50.286;9.452;2024-03-22T12:12:11;97288.00;;;17.88
79089;BMP280;68489;50.286;9.452;2024-03-22T12:14:38;97286.53;;;17.92
79089;BMP280;68489;50.286;9.452;2024-03-22T12:17:04;97288.72;;;17.94
79089;BMP280;68489;50.286;9.452;2024-03-22T12:19:29;97277.97;;;17.83
79089;BMP280;68489;50.286;9.452;2024-03-22T12:21:55;97272.31;;;17.75
79089;BMP280;68489;50.286;9.452;2024-03-22T12:24:21;97266.63;;;17.45
79089;BMP280;68489;50.286;9.452;2024-03-22T12:26:46;97264.41;;;17.32
79089;BMP280;68489;50.286;9.452;2024-03-22T12:29:18;97262.72;;;17.41
79089;BMP280;68489;50.286;9.452;2024-03-22T12:31:43;97261.75;;;17.38
79089;BMP280;68489;50.286;9.452;2024-03-22T12:34:09;97253.72;;;17.60
79089;BMP280;68489;50.286;9.452;2024-03-22T12:36:34;97248.28;;;17.32
79089;BMP280;68489;50.286;9.452;2024-03-22T12:39:00;97241.66;;;17.22
79089;BMP280;68489;50.286;9.452;2024-03-22T12:41:25;97238.47;;;17.29
79089;BMP280;68489;50.286;9.452;2024-03-22T12:43:51;97237.72;;;17.12
79089;BMP280;68489;50.286;9.452;2024-03-22T12:46:17;97236.53;;;17.30
79089;BMP280;68489;50.286;9.452;2024-03-22T12:48:42;97235.34;;;17.42
79089;BMP280;68489;50.286;9.452;2024-03-22T12:51:07;97246.03;;;17.25
79089;BMP280;68489;50.286;9.452;2024-03-22T12:53:33;97230.94;;;17.39
79089;BMP280;68489;50.286;9.452;2024-03-22T12:55:58;97225.22;;;17.03
79089;BMP280;68489;50.286;9.452;2024-03-22T12:58:23;97228.22;;;17.22
79089;BMP280;68489;50.286;9.452;2024-03-22T13:00:49;97229.72;;;17.34
79089;BMP280;68489;50.286;9.452;2024-03-22T13:03:14;97221.69;;;17.51
79089;BMP280;68489;50.286;9.452;2024-03-22T13:05:41;97209.25;;;17.71
79089;BMP280;68489;50.286;9.452;2024-03-22T13:08:06;97201.19;;;17.87
79089;BMP280;68489;50.286;9.452;2024-03-22T13:10:32;97196.28;;;17.69
79089;BMP280;68489;50.286;9.452;2024-03-22T13:12:57;97188.72;;;17.96
79089;BMP280;68489;50.286;9.452;2024-03-22T13:15:23;97196.06;;;18.01
79089;BMP280;68489;50.286;9.452;2024-03-22T13:17:48;97186.47;;;17.55
79089;BMP280;68489;50.286;9.452;2024-03-22T13:20:14;97196.00;;;17.33
79089;BMP280;68489;50.286;9.452;2024-03-22T13:22:41;97190.38;;;17.31
79089;BMP280;68489;50.286;9.452;2024-03-22T13:25:06;97183.31;;;17.51
79089;BMP280;68489;50.286;9.452;2024-03-22T13:27:34;97184.06;;;17.51
79089;BMP280;68489;50.286;9.452;2024-03-22T13:30:03;97178.16;;;17.42
79089;BMP280;68489;50.286;9.452;2024-03-22T13:32:28;97175.00;;;17.60
79089;BMP280;68489;50.286;9.452;2024-03-22T13:34:54;97170.88;;;17.64
79089;BMP280;68489;50.286;9.452;2024-03-22T13:37:19;97178.94;;;17.64
79089;BMP280;68489;50.286;9.452;2024-03-22T13:39:51;97170.88;;;17.59
79089;BMP280;68489;50.286;9.452;2024-03-22T13:42:16;97169.63;;;17.32
79089;BMP280;68489;50.286;9.452;2024-03-22T13:44:42;97163.75;;;17.33
79089;BMP280;68489;50.286;9.452;2024-03-22T13:47:08;97162.28;;;17.27
79089;BMP280;68489;50.286;9.452;2024-03-22T13:49:33;97161.84;;;17.62
79089;BMP280;68489;50.286;9.452;2024-03-22T13:51:59;97156.63;;;17.30
79089;BMP280;68489;50.286;9.452;2024-03-22T13:54:25;97164.97;;;17.27
79089;BMP280;68489;50.286;9.452;2024-03-22T13:56:50;97152.75;;;17.31
79089;BMP280;68489;50.286;9.452;2024-03-22T13:59:16;97154.47;;;17.40
79089;BMP280;68489;50.286;9.452;2024-03-22T14:01:41;97146.91;;;17.44
79089;BMP280;68489;50.286;9.452;2024-03-22T14:04:07;97145.41;;;17.26
79089;BMP280;68489;50.286;9.452;2024-03-22T14:06:33;97147.41;;;17.37
79089;BMP280;68489;50.286;9.452;2024-03-22T14:08:59;97145.44;;;17.43